Pays
Station

 

Conditions  météo  pour  Punta Arenas  -  Chili    Chili

  
6 °C
    
 
 

METAR pour Punta Arenas :

SCCI 212300Z 14007KT CAVOK 06/01 Q1018 NOSIG

 

Voici le bulletin pour Punta Arenas - Chili.
 
Le bulletin a été fait il y a un moment, à 23:00 UTC .
Le vent soufflait à la vitesse de 3.6 mètres par seconde de Sud-est (140°).
 
La température était de 6 °C, avec un point de rosée à 1 °C.
La pression atmosphérique était de 1018 hPa.
L'humidité relative était de 70.2%.
 
Il y avait pas de nuages en-dessous de 1500 mètres et pas de cumulonimbus.
 
La visibilité globale était de supérieure à 10 kilomètres.
 

 
 
 

Pays :   A   B   C   D   E   F   G   H   I   J   K   L   M   N   O   P   Q   R   S   T   U   V   W   Y   Z

 

Partenaires :  Info Météo avec Met'info
Météo Marine avec MeteoMarine.net
Infos Site  |  Infos Légales  |  Crédits  |  Confidentialité
Contactez-nous  |  Ajouter aux favoris
© 2013-2018 METAR - Tous droits réservés